In Rescue
 
Open Full Screen Window  High Contrast Mode
July 23, 2019 1:22 AM EDT
Weather Information
Wind Direction
  ---
Wind Speed
  00 kt (0 mph)
Wind Gust
  00 kt (0 mph)
Altimeter
30.06 in
Visibility
10 SM
Temperature
13° C
55° F
Dewpoint
11° C
52° F
Humidity
88%
1hr Rain Fall
00.00 in.
24hr Rain Fall
00.12 in.
Sky Condition
Clear
VFR

METAR KRQB 230522Z AUTO 00000KT 10SM CLR 13/11 A3006 RMK AO2 T01290105

FAA Disclaimer: The data displayed is for advisory purposes only and is not to be used for flight planning or operations.